sensor_id;sensor_type;location;lat;lon;timestamp;temperature;humidity
22416;DHT22;12204;50.600;4.608;2023-04-15T00:03:30;18.70;69.00
22416;DHT22;12204;50.600;4.608;2023-04-15T00:08:35;18.70;68.80
22416;DHT22;12204;50.600;4.608;2023-04-15T00:13:46;18.70;68.70
22416;DHT22;12204;50.600;4.608;2023-04-15T00:18:50;18.70;68.70
22416;DHT22;12204;50.600;4.608;2023-04-15T00:23:53;18.70;68.90
22416;DHT22;12204;50.600;4.608;2023-04-15T00:28:58;18.70;69.10
22416;DHT22;12204;50.600;4.608;2023-04-15T00:34:05;18.70;69.00
22416;DHT22;12204;50.600;4.608;2023-04-15T00:39:09;18.70;68.80
22416;DHT22;12204;50.600;4.608;2023-04-15T00:44:14;18.70;68.90
22416;DHT22;12204;50.600;4.608;2023-04-15T00:49:19;18.70;69.00
22416;DHT22;12204;50.600;4.608;2023-04-15T00:54:23;18.70;69.00
22416;DHT22;12204;50.600;4.608;2023-04-15T00:59:29;18.70;68.70
22416;DHT22;12204;50.600;4.608;2023-04-15T01:04:33;18.70;68.70
22416;DHT22;12204;50.600;4.608;2023-04-15T01:09:39;18.70;68.80
22416;DHT22;12204;50.600;4.608;2023-04-15T01:14:44;18.70;69.00
22416;DHT22;12204;50.600;4.608;2023-04-15T01:19:48;18.70;69.10
22416;DHT22;12204;50.600;4.608;2023-04-15T01:25:05;18.70;68.70
22416;DHT22;12204;50.600;4.608;2023-04-15T01:30:20;18.70;68.80
22416;DHT22;12204;50.600;4.608;2023-04-15T01:35:26;18.70;69.00
22416;DHT22;12204;50.600;4.608;2023-04-15T01:40:30;18.70;69.10
22416;DHT22;12204;50.600;4.608;2023-04-15T01:45:38;18.70;69.20
22416;DHT22;12204;50.600;4.608;2023-04-15T01:50:45;18.70;69.10
22416;DHT22;12204;50.600;4.608;2023-04-15T01:55:48;18.70;68.70
22416;DHT22;12204;50.600;4.608;2023-04-15T02:00:54;18.70;68.70
22416;DHT22;12204;50.600;4.608;2023-04-15T02:05:57;18.70;68.80
22416;DHT22;12204;50.600;4.608;2023-04-15T02:11:02;18.70;69.00
22416;DHT22;12204;50.600;4.608;2023-04-15T02:16:15;18.70;69.00
22416;DHT22;12204;50.600;4.608;2023-04-15T02:21:19;18.70;68.70
22416;DHT22;12204;50.600;4.608;2023-04-15T02:26:25;18.70;68.60
22416;DHT22;12204;50.600;4.608;2023-04-15T02:31:34;18.70;68.80
22416;DHT22;12204;50.600;4.608;2023-04-15T02:36:41;18.70;68.90
22416;DHT22;12204;50.600;4.608;2023-04-15T02:41:46;18.70;69.00
22416;DHT22;12204;50.600;4.608;2023-04-15T02:46:57;18.70;68.80
22416;DHT22;12204;50.600;4.608;2023-04-15T02:52:01;18.70;68.80
22416;DHT22;12204;50.600;4.608;2023-04-15T02:57:04;18.70;68.90
22416;DHT22;12204;50.600;4.608;2023-04-15T03:02:10;18.70;69.10
22416;DHT22;12204;50.600;4.608;2023-04-15T03:07:13;18.70;69.00
22416;DHT22;12204;50.600;4.608;2023-04-15T03:12:17;18.70;68.80
22416;DHT22;12204;50.600;4.608;2023-04-15T03:17:23;18.70;69.00
22416;DHT22;12204;50.600;4.608;2023-04-15T03:22:30;18.70;69.00
22416;DHT22;12204;50.600;4.608;2023-04-15T03:27:34;18.70;69.10
22416;DHT22;12204;50.600;4.608;2023-04-15T03:32:39;18.70;68.80
22416;DHT22;12204;50.600;4.608;2023-04-15T03:37:43;18.70;68.80
22416;DHT22;12204;50.600;4.608;2023-04-15T03:42:50;18.70;69.00
22416;DHT22;12204;50.600;4.608;2023-04-15T03:47:58;18.70;69.10
22416;DHT22;12204;50.600;4.608;2023-04-15T03:53:17;18.70;69.00
22416;DHT22;12204;50.600;4.608;2023-04-15T03:58:25;18.70;68.80
22416;DHT22;12204;50.600;4.608;2023-04-15T04:03:30;18.70;68.90
22416;DHT22;12204;50.600;4.608;2023-04-15T04:08:34;18.70;69.00
22416;DHT22;12204;50.600;4.608;2023-04-15T04:13:41;18.60;69.90
22416;DHT22;12204;50.600;4.608;2023-04-15T04:18:46;18.60;69.00
22416;DHT22;12204;50.600;4.608;2023-04-15T04:23:52;18.70;68.80
22416;DHT22;12204;50.600;4.608;2023-04-15T04:28:55;18.60;68.90
22416;DHT22;12204;50.600;4.608;2023-04-15T04:34:01;18.70;69.80
22416;DHT22;12204;50.600;4.608;2023-04-15T04:39:04;18.70;69.30
22416;DHT22;12204;50.600;4.608;2023-04-15T04:44:08;18.70;69.00
22416;DHT22;12204;50.600;4.608;2023-04-15T04:49:13;18.60;68.90
22416;DHT22;12204;50.600;4.608;2023-04-15T04:54:17;18.60;69.80
22416;DHT22;12204;50.600;4.608;2023-04-15T04:59:20;18.60;69.10
22416;DHT22;12204;50.600;4.608;2023-04-15T05:04:26;18.70;69.30
22416;DHT22;12204;50.600;4.608;2023-04-15T05:09:32;18.70;69.40
22416;DHT22;12204;50.600;4.608;2023-04-15T05:14:37;18.70;69.10
22416;DHT22;12204;50.600;4.608;2023-04-15T05:19:42;18.60;69.00
22416;DHT22;12204;50.600;4.608;2023-04-15T05:24:45;18.70;69.20
22416;DHT22;12204;50.600;4.608;2023-04-15T05:29:49;18.70;69.40
22416;DHT22;12204;50.600;4.608;2023-04-15T05:34:54;18.60;69.10
22416;DHT22;12204;50.600;4.608;2023-04-15T05:39:57;18.60;68.90
22416;DHT22;12204;50.600;4.608;2023-04-15T05:45:02;18.60;69.00
22416;DHT22;12204;50.600;4.608;2023-04-15T05:50:08;18.60;69.10
22416;DHT22;12204;50.600;4.608;2023-04-15T05:55:12;18.60;69.20
22416;DHT22;12204;50.600;4.608;2023-04-15T06:00:16;18.60;69.00
22416;DHT22;12204;50.600;4.608;2023-04-15T06:05:22;18.70;69.10
22416;DHT22;12204;50.600;4.608;2023-04-15T06:10:26;18.60;69.20
22416;DHT22;12204;50.600;4.608;2023-04-15T06:15:30;18.70;69.30
22416;DHT22;12204;50.600;4.608;2023-04-15T06:20:38;18.60;69.10
22416;DHT22;12204;50.600;4.608;2023-04-15T06:25:42;18.70;68.90
22416;DHT22;12204;50.600;4.608;2023-04-15T06:30:46;18.70;69.00
22416;DHT22;12204;50.600;4.608;2023-04-15T06:35:51;18.70;69.10
22416;DHT22;12204;50.600;4.608;2023-04-15T06:40:55;18.70;69.30
22416;DHT22;12204;50.600;4.608;2023-04-15T06:45:58;18.70;69.00
22416;DHT22;12204;50.600;4.608;2023-04-15T06:51:03;18.70;68.80
22416;DHT22;12204;50.600;4.608;2023-04-15T06:56:08;18.70;68.90
22416;DHT22;12204;50.600;4.608;2023-04-15T07:01:11;18.70;69.10
22416;DHT22;12204;50.600;4.608;2023-04-15T07:06:20;18.70;69.10
22416;DHT22;12204;50.600;4.608;2023-04-15T07:11:25;18.70;68.90
22416;DHT22;12204;50.600;4.608;2023-04-15T07:16:28;18.70;68.80
22416;DHT22;12204;50.600;4.608;2023-04-15T07:21:33;18.70;68.80
22416;DHT22;12204;50.600;4.608;2023-04-15T07:26:49;18.70;69.00
22416;DHT22;12204;50.600;4.608;2023-04-15T07:31:53;18.70;69.20
22416;DHT22;12204;50.600;4.608;2023-04-15T07:36:59;18.70;69.30
22416;DHT22;12204;50.600;4.608;2023-04-15T07:42:02;18.70;69.10
22416;DHT22;12204;50.600;4.608;2023-04-15T07:47:06;18.70;68.80
22416;DHT22;12204;50.600;4.608;2023-04-15T07:52:11;18.80;68.60
22416;DHT22;12204;50.600;4.608;2023-04-15T07:57:14;18.70;68.60
22416;DHT22;12204;50.600;4.608;2023-04-15T08:02:19;18.80;68.80
22416;DHT22;12204;50.600;4.608;2023-04-15T08:07:24;18.70;68.80
22416;DHT22;12204;50.600;4.608;2023-04-15T08:12:28;18.80;68.70
22416;DHT22;12204;50.600;4.608;2023-04-15T08:17:32;18.70;68.60
22416;DHT22;12204;50.600;4.608;2023-04-15T08:22:37;18.70;68.60
22416;DHT22;12204;50.600;4.608;2023-04-15T08:27:40;18.80;68.70
22416;DHT22;12204;50.600;4.608;2023-04-15T08:32:44;18.80;68.80
22416;DHT22;12204;50.600;4.608;2023-04-15T08:37:50;18.80;68.70
22416;DHT22;12204;50.600;4.608;2023-04-15T08:42:55;18.80;68.70
22416;DHT22;12204;50.600;4.608;2023-04-15T08:48:01;18.80;68.70
22416;DHT22;12204;50.600;4.608;2023-04-15T08:53:09;18.80;68.80
22416;DHT22;12204;50.600;4.608;2023-04-15T08:58:14;18.80;68.70
22416;DHT22;12204;50.600;4.608;2023-04-15T09:03:19;18.80;68.50
22416;DHT22;12204;50.600;4.608;2023-04-15T09:08:26;18.80;68.50
22416;DHT22;12204;50.600;4.608;2023-04-15T09:13:29;18.80;68.60
22416;DHT22;12204;50.600;4.608;2023-04-15T09:18:34;18.80;68.70
22416;DHT22;12204;50.600;4.608;2023-04-15T09:23:54;18.90;68.70
22416;DHT22;12204;50.600;4.608;2023-04-15T09:29:06;18.80;68.30
22416;DHT22;12204;50.600;4.608;2023-04-15T09:34:10;18.80;68.20
22416;DHT22;12204;50.600;4.608;2023-04-15T09:39:15;18.80;68.40
22416;DHT22;12204;50.600;4.608;2023-04-15T09:44:22;18.90;68.60
22416;DHT22;12204;50.600;4.608;2023-04-15T09:49:25;18.90;68.60
22416;DHT22;12204;50.600;4.608;2023-04-15T09:54:37;18.90;68.30
22416;DHT22;12204;50.600;4.608;2023-04-15T09:59:40;18.90;68.10
22416;DHT22;12204;50.600;4.608;2023-04-15T10:04:44;18.90;68.20
22416;DHT22;12204;50.600;4.608;2023-04-15T10:09:52;18.90;68.30
22416;DHT22;12204;50.600;4.608;2023-04-15T10:14:58;18.90;68.50
22416;DHT22;12204;50.600;4.608;2023-04-15T10:20:07;18.90;68.30
22416;DHT22;12204;50.600;4.608;2023-04-15T10:25:15;18.90;68.00
22416;DHT22;12204;50.600;4.608;2023-04-15T10:30:18;18.90;68.10
22416;DHT22;12204;50.600;4.608;2023-04-15T10:35:23;18.90;68.20
22416;DHT22;12204;50.600;4.608;2023-04-15T10:40:29;18.90;68.30
22416;DHT22;12204;50.600;4.608;2023-04-15T10:45:35;18.90;68.20
22416;DHT22;12204;50.600;4.608;2023-04-15T10:50:39;18.90;68.00
22416;DHT22;12204;50.600;4.608;2023-04-15T10:55:44;18.90;67.90
22416;DHT22;12204;50.600;4.608;2023-04-15T11:00:50;18.90;68.80
22416;DHT22;12204;50.600;4.608;2023-04-15T11:05:55;18.90;68.20
22416;DHT22;12204;50.600;4.608;2023-04-15T11:11:00;18.90;68.10
22416;DHT22;12204;50.600;4.608;2023-04-15T11:16:04;18.90;67.90
22416;DHT22;12204;50.600;4.608;2023-04-15T11:21:08;18.90;67.80
22416;DHT22;12204;50.600;4.608;2023-04-15T11:26:13;18.90;67.90
22416;DHT22;12204;50.600;4.608;2023-04-15T11:31:17;18.90;68.10
22416;DHT22;12204;50.600;4.608;2023-04-15T11:36:23;18.90;68.10
22416;DHT22;12204;50.600;4.608;2023-04-15T11:41:30;18.90;67.90
22416;DHT22;12204;50.600;4.608;2023-04-15T11:46:34;18.90;67.80
22416;DHT22;12204;50.600;4.608;2023-04-15T11:51:37;18.90;67.90
22416;DHT22;12204;50.600;4.608;2023-04-15T11:56:49;18.90;67.90
22416;DHT22;12204;50.600;4.608;2023-04-15T12:01:53;19.00;68.20
22416;DHT22;12204;50.600;4.608;2023-04-15T12:07:04;18.90;68.30
22416;DHT22;12204;50.600;4.608;2023-04-15T12:12:09;19.00;68.20
22416;DHT22;12204;50.600;4.608;2023-04-15T12:17:13;19.00;68.00
22416;DHT22;12204;50.600;4.608;2023-04-15T12:22:17;19.00;67.90
22416;DHT22;12204;50.600;4.608;2023-04-15T12:27:25;19.00;68.00
22416;DHT22;12204;50.600;4.608;2023-04-15T12:32:34;19.00;68.20
22416;DHT22;12204;50.600;4.608;2023-04-15T12:37:38;19.00;67.90
22416;DHT22;12204;50.600;4.608;2023-04-15T12:42:43;19.00;67.80
22416;DHT22;12204;50.600;4.608;2023-04-15T12:47:46;19.00;67.80
22416;DHT22;12204;50.600;4.608;2023-04-15T12:52:50;19.00;67.80
22416;DHT22;12204;50.600;4.608;2023-04-15T12:57:55;19.00;68.00
22416;DHT22;12204;50.600;4.608;2023-04-15T13:02:59;19.00;67.80
22416;DHT22;12204;50.600;4.608;2023-04-15T13:08:05;19.00;67.70
22416;DHT22;12204;50.600;4.608;2023-04-15T13:13:10;19.00;67.70
22416;DHT22;12204;50.600;4.608;2023-04-15T13:18:14;19.00;67.70
22416;DHT22;12204;50.600;4.608;2023-04-15T13:23:17;19.10;68.00
22416;DHT22;12204;50.600;4.608;2023-04-15T13:28:22;19.10;67.80
22416;DHT22;12204;50.600;4.608;2023-04-15T13:33:26;19.10;67.70
22416;DHT22;12204;50.600;4.608;2023-04-15T13:38:29;19.10;67.70
22416;DHT22;12204;50.600;4.608;2023-04-15T13:43:34;19.10;67.70
22416;DHT22;12204;50.600;4.608;2023-04-15T13:48:38;19.10;67.70
22416;DHT22;12204;50.600;4.608;2023-04-15T13:53:41;19.10;67.70
22416;DHT22;12204;50.600;4.608;2023-04-15T13:58:46;19.20;68.00
22416;DHT22;12204;50.600;4.608;2023-04-15T14:03:50;19.20;67.90
22416;DHT22;12204;50.600;4.608;2023-04-15T14:08:53;19.20;68.00
22416;DHT22;12204;50.600;4.608;2023-04-15T14:13:58;19.20;68.00
22416;DHT22;12204;50.600;4.608;2023-04-15T14:19:02;19.20;68.00
22416;DHT22;12204;50.600;4.608;2023-04-15T14:24:06;19.30;68.30
22416;DHT22;12204;50.600;4.608;2023-04-15T14:29:11;19.30;67.90
22416;DHT22;12204;50.600;4.608;2023-04-15T14:34:15;19.30;67.90
22416;DHT22;12204;50.600;4.608;2023-04-15T14:39:18;19.30;67.50
22416;DHT22;12204;50.600;4.608;2023-04-15T14:44:23;19.30;67.40
22416;DHT22;12204;50.600;4.608;2023-04-15T14:49:27;19.40;67.50
22416;DHT22;12204;50.600;4.608;2023-04-15T14:54:31;19.40;67.70
22416;DHT22;12204;50.600;4.608;2023-04-15T14:59:36;19.50;67.60
22416;DHT22;12204;50.600;4.608;2023-04-15T15:04:39;19.60;67.30
22416;DHT22;12204;50.600;4.608;2023-04-15T15:09:43;19.60;67.20
22416;DHT22;12204;50.600;4.608;2023-04-15T15:14:48;19.60;67.30
22416;DHT22;12204;50.600;4.608;2023-04-15T15:19:52;19.60;67.50
22416;DHT22;12204;50.600;4.608;2023-04-15T15:24:55;19.70;67.40
22416;DHT22;12204;50.600;4.608;2023-04-15T15:30:01;19.80;67.30
22416;DHT22;12204;50.600;4.608;2023-04-15T15:35:05;19.80;67.40
22416;DHT22;12204;50.600;4.608;2023-04-15T15:40:10;19.90;67.20
22416;DHT22;12204;50.600;4.608;2023-04-15T15:45:16;19.90;67.20
22416;DHT22;12204;50.600;4.608;2023-04-15T15:50:20;20.00;67.30
22416;DHT22;12204;50.600;4.608;2023-04-15T15:55:23;20.10;67.10
22416;DHT22;12204;50.600;4.608;2023-04-15T16:00:29;20.10;67.10
22416;DHT22;12204;50.600;4.608;2023-04-15T16:05:33;20.10;67.00
22416;DHT22;12204;50.600;4.608;2023-04-15T16:10:37;20.20;67.00
22416;DHT22;12204;50.600;4.608;2023-04-15T16:15:42;20.20;67.00
22416;DHT22;12204;50.600;4.608;2023-04-15T16:20:45;20.20;67.00
22416;DHT22;12204;50.600;4.608;2023-04-15T16:25:49;20.20;66.80
22416;DHT22;12204;50.600;4.608;2023-04-15T16:30:55;20.20;66.80
22416;DHT22;12204;50.600;4.608;2023-04-15T16:35:59;20.20;66.80
22416;DHT22;12204;50.600;4.608;2023-04-15T16:41:02;20.20;67.00
22416;DHT22;12204;50.600;4.608;2023-04-15T16:46:07;20.20;67.20
22416;DHT22;12204;50.600;4.608;2023-04-15T16:51:11;20.20;66.80
22416;DHT22;12204;50.600;4.608;2023-04-15T16:56:14;20.20;67.10
22416;DHT22;12204;50.600;4.608;2023-04-15T17:01:20;20.10;67.20
22416;DHT22;12204;50.600;4.608;2023-04-15T17:06:24;20.10;68.10
22416;DHT22;12204;50.600;4.608;2023-04-15T17:11:27;20.00;67.30
22416;DHT22;12204;50.600;4.608;2023-04-15T17:16:33;20.00;67.30
22416;DHT22;12204;50.600;4.608;2023-04-15T17:21:37;20.00;67.50
22416;DHT22;12204;50.600;4.608;2023-04-15T17:26:40;19.90;67.70
22416;DHT22;12204;50.600;4.608;2023-04-15T17:31:45;19.90;67.70
22416;DHT22;12204;50.600;4.608;2023-04-15T17:36:48;19.90;67.80
22416;DHT22;12204;50.600;4.608;2023-04-15T17:41:56;19.80;67.70
22416;DHT22;12204;50.600;4.608;2023-04-15T17:47:01;19.80;67.80
22416;DHT22;12204;50.600;4.608;2023-04-15T17:52:05;19.80;68.00
22416;DHT22;12204;50.600;4.608;2023-04-15T17:57:08;19.70;67.90
22416;DHT22;12204;50.600;4.608;2023-04-15T18:02:14;19.70;68.10
22416;DHT22;12204;50.600;4.608;2023-04-15T18:07:18;19.70;68.20
22416;DHT22;12204;50.600;4.608;2023-04-15T18:12:21;19.70;67.50
22416;DHT22;12204;50.600;4.608;2023-04-15T18:17:26;19.70;67.70
22416;DHT22;12204;50.600;4.608;2023-04-15T18:22:30;19.70;67.30
22416;DHT22;12204;50.600;4.608;2023-04-15T18:27:34;19.70;67.80
22416;DHT22;12204;50.600;4.608;2023-04-15T18:32:41;19.70;67.60
22416;DHT22;12204;50.600;4.608;2023-04-15T18:37:45;19.60;67.60
22416;DHT22;12204;50.600;4.608;2023-04-15T18:42:49;19.60;67.90
22416;DHT22;12204;50.600;4.608;2023-04-15T18:47:54;19.60;68.00
22416;DHT22;12204;50.600;4.608;2023-04-15T18:52:58;19.50;68.00
22416;DHT22;12204;50.600;4.608;2023-04-15T18:58:01;19.50;68.10
22416;DHT22;12204;50.600;4.608;2023-04-15T19:03:11;19.50;68.00
22416;DHT22;12204;50.600;4.608;2023-04-15T19:08:15;19.50;68.60
22416;DHT22;12204;50.600;4.608;2023-04-15T19:13:19;19.50;68.60
22416;DHT22;12204;50.600;4.608;2023-04-15T19:18:25;19.50;68.90
22416;DHT22;12204;50.600;4.608;2023-04-15T19:23:29;19.50;68.90
22416;DHT22;12204;50.600;4.608;2023-04-15T19:28:33;19.50;68.60
22416;DHT22;12204;50.600;4.608;2023-04-15T19:33:38;19.50;68.70
22416;DHT22;12204;50.600;4.608;2023-04-15T19:38:42;19.50;68.30
22416;DHT22;12204;50.600;4.608;2023-04-15T19:43:45;19.60;68.20
22416;DHT22;12204;50.600;4.608;2023-04-15T19:48:50;19.60;68.50
22416;DHT22;12204;50.600;4.608;2023-04-15T19:53:54;19.50;68.30
22416;DHT22;12204;50.600;4.608;2023-04-15T19:58:58;19.50;68.30
22416;DHT22;12204;50.600;4.608;2023-04-15T20:04:04;19.50;68.10
22416;DHT22;12204;50.600;4.608;2023-04-15T20:09:07;19.60;68.00
22416;DHT22;12204;50.600;4.608;2023-04-15T20:14:12;19.50;68.00
22416;DHT22;12204;50.600;4.608;2023-04-15T20:19:17;19.50;67.60
22416;DHT22;12204;50.600;4.608;2023-04-15T20:24:20;19.50;68.20
22416;DHT22;12204;50.600;4.608;2023-04-15T20:29:25;19.50;67.80
22416;DHT22;12204;50.600;4.608;2023-04-15T20:34:29;19.50;67.70
22416;DHT22;12204;50.600;4.608;2023-04-15T20:39:33;19.50;68.50
22416;DHT22;12204;50.600;4.608;2023-04-15T20:44:37;19.50;67.60
22416;DHT22;12204;50.600;4.608;2023-04-15T20:49:42;19.50;68.00
22416;DHT22;12204;50.600;4.608;2023-04-15T20:54:45;19.50;67.80
22416;DHT22;12204;50.600;4.608;2023-04-15T20:59:49;19.50;67.70
22416;DHT22;12204;50.600;4.608;2023-04-15T21:04:54;19.50;67.60
22416;DHT22;12204;50.600;4.608;2023-04-15T21:09:59;19.50;67.60
22416;DHT22;12204;50.600;4.608;2023-04-15T21:15:04;19.50;67.60
22416;DHT22;12204;50.600;4.608;2023-04-15T21:20:10;19.50;67.50
22416;DHT22;12204;50.600;4.608;2023-04-15T21:25:15;19.50;67.40
22416;DHT22;12204;50.600;4.608;2023-04-15T21:30:18;19.50;67.40
22416;DHT22;12204;50.600;4.608;2023-04-15T21:35:25;19.40;67.40
22416;DHT22;12204;50.600;4.608;2023-04-15T21:40:32;19.40;67.40
22416;DHT22;12204;50.600;4.608;2023-04-15T21:45:41;19.40;67.60
22416;DHT22;12204;50.600;4.608;2023-04-15T21:51:08;19.40;67.80
22416;DHT22;12204;50.600;4.608;2023-04-15T21:56:12;19.50;67.80
22416;DHT22;12204;50.600;4.608;2023-04-15T22:01:16;19.40;67.50
22416;DHT22;12204;50.600;4.608;2023-04-15T22:06:21;19.40;67.50
22416;DHT22;12204;50.600;4.608;2023-04-15T22:11:24;19.40;67.60
22416;DHT22;12204;50.600;4.608;2023-04-15T22:16:29;19.40;67.70
22416;DHT22;12204;50.600;4.608;2023-04-15T22:21:34;19.40;67.80
22416;DHT22;12204;50.600;4.608;2023-04-15T22:26:38;19.40;67.60
22416;DHT22;12204;50.600;4.608;2023-04-15T22:31:41;19.40;67.80
22416;DHT22;12204;50.600;4.608;2023-04-15T22:36:46;19.40;67.70
22416;DHT22;12204;50.600;4.608;2023-04-15T22:41:50;19.40;67.60
22416;DHT22;12204;50.600;4.608;2023-04-15T22:46:53;19.40;67.80
22416;DHT22;12204;50.600;4.608;2023-04-15T22:51:58;19.40;67.80
22416;DHT22;12204;50.600;4.608;2023-04-15T22:57:02;19.40;67.60
22416;DHT22;12204;50.600;4.608;2023-04-15T23:02:06;19.40;67.50
22416;DHT22;12204;50.600;4.608;2023-04-15T23:07:11;19.40;67.50
22416;DHT22;12204;50.600;4.608;2023-04-15T23:12:15;19.40;67.60
22416;DHT22;12204;50.600;4.608;2023-04-15T23:17:18;19.40;67.80
22416;DHT22;12204;50.600;4.608;2023-04-15T23:22:23;19.40;67.60
22416;DHT22;12204;50.600;4.608;2023-04-15T23:27:27;19.40;67.50
22416;DHT22;12204;50.600;4.608;2023-04-15T23:32:31;19.40;67.50
22416;DHT22;12204;50.600;4.608;2023-04-15T23:37:36;19.40;67.60
22416;DHT22;12204;50.600;4.608;2023-04-15T23:42:42;19.40;67.70
22416;DHT22;12204;50.600;4.608;2023-04-15T23:47:46;19.40;67.50
22416;DHT22;12204;50.600;4.608;2023-04-15T23:52:52;19.30;67.40
22416;DHT22;12204;50.600;4.608;2023-04-15T23:57:56;19.30;67.40
